createdAt,value
2022-12-29T00:02:20.204Z,76.87
2022-12-29T00:04:46.806Z,76.94
2022-12-29T00:07:13.317Z,76.67
2022-12-29T00:09:39.945Z,77.05
2022-12-29T00:12:06.573Z,76.85
2022-12-29T00:14:51.946Z,77.49
2022-12-29T00:17:18.895Z,77.58
2022-12-29T00:20:04.133Z,77.52
2022-12-29T00:22:49.338Z,77.88
2022-12-29T00:25:34.816Z,78.53
2022-12-29T00:28:20.015Z,78.85
2022-12-29T00:31:05.185Z,78.63
2022-12-29T00:33:52.384Z,78.52
2022-12-29T00:36:29.852Z,78.87
2022-12-29T00:39:26.501Z,79.24
2022-12-29T00:42:11.977Z,79.64
2022-12-29T00:44:38.610Z,79.45
2022-12-29T00:47:05.492Z,78.36
2022-12-29T00:49:33.327Z,78.57
2022-12-29T00:52:03.826Z,79.29
2022-12-29T00:54:32.298Z,79.80
2022-12-29T00:56:58.870Z,79.20
2022-12-29T00:59:26.073Z,79.92
2022-12-29T01:01:54.654Z,79.39
2022-12-29T01:04:27.035Z,79.50
2022-12-29T01:06:54.678Z,79.85
2022-12-29T01:09:40.371Z,79.39
2022-12-29T01:12:08.578Z,79.24
2022-12-29T01:14:35.261Z,78.26
2022-12-29T01:17:02.378Z,78.35
2022-12-29T01:19:28.802Z,77.15
2022-12-29T01:21:55.630Z,77.25
2022-12-29T01:24:22.543Z,77.36
2022-12-29T01:26:49.757Z,76.84
2022-12-29T01:29:16.611Z,77.37
2022-12-29T01:31:43.798Z,77.35
2022-12-29T01:34:10.599Z,78.66
2022-12-29T01:36:37.189Z,76.33
2022-12-29T01:39:03.795Z,74.48
2022-12-29T01:41:30.862Z,75.88
2022-12-29T01:44:02.613Z,75.66
2022-12-29T01:46:39.654Z,76.52
2022-12-29T01:49:22.591Z,77.17
2022-12-29T01:51:57.618Z,75.72
2022-12-29T01:54:31.367Z,76.07
2022-12-29T01:57:02.618Z,75.16
2022-12-29T01:59:33.710Z,75.74
2022-12-29T02:02:00.905Z,76.39
2022-12-29T02:04:32.454Z,74.48
2022-12-29T02:07:04.050Z,74.02
2022-12-29T02:09:31.485Z,75.64
2022-12-29T02:11:59.357Z,74.35
2022-12-29T02:14:25.879Z,74.68
2022-12-29T02:17:25.083Z,74.15
2022-12-29T02:20:27.904Z,74.95
2022-12-29T02:23:06.019Z,74.48
2022-12-29T02:25:45.451Z,75.17
2022-12-29T02:28:40.205Z,75.93
2022-12-29T02:31:24.478Z,76.84
2022-12-29T02:34:25.641Z,75.59
2022-12-29T02:37:05.822Z,75.48
2022-12-29T02:39:46.828Z,76.40
2022-12-29T02:42:18.561Z,76.78
2022-12-29T02:44:56.099Z,76.97
2022-12-29T02:47:46.908Z,76.34
2022-12-29T02:50:21.426Z,76.77
2022-12-29T02:52:53.312Z,77.43
2022-12-29T02:55:19.711Z,77.77
2022-12-29T02:57:46.209Z,76.71
2022-12-29T03:00:16.717Z,77.31
2022-12-29T03:03:22.149Z,77.81
2022-12-29T03:06:04.856Z,78.45
2022-12-29T03:08:56.229Z,77.37
2022-12-29T03:11:49.155Z,77.41
2022-12-29T03:14:59.913Z,78.33
2022-12-29T03:17:41.031Z,78.83
2022-12-29T03:20:09.568Z,76.59
2022-12-29T03:22:44.779Z,77.37
2022-12-29T03:25:19.412Z,77.22
2022-12-29T03:27:55.542Z,78.71
2022-12-29T03:30:22.442Z,77.69
2022-12-29T03:32:55.098Z,78.45
2022-12-29T03:35:23.872Z,79.20
2022-12-29T03:37:53.144Z,76.76
2022-12-29T03:40:22.567Z,77.76
2022-12-29T03:42:49.517Z,78.12
2022-12-29T03:45:16.583Z,77.70
2022-12-29T03:47:45.892Z,76.93
2022-12-29T03:50:14.150Z,77.49
2022-12-29T03:52:41.638Z,75.78
2022-12-29T03:55:08.607Z,77.82
2022-12-29T03:57:35.477Z,77.19
2022-12-29T04:00:03.338Z,74.41
2022-12-29T04:02:31.148Z,74.46
2022-12-29T04:04:57.647Z,75.04
2022-12-29T04:07:24.218Z,74.92
2022-12-29T04:09:50.645Z,74.57
2022-12-29T04:12:17.257Z,74.85
2022-12-29T04:14:43.712Z,76.07
2022-12-29T04:17:10.274Z,75.33
2022-12-29T04:19:36.957Z,74.60
2022-12-29T04:22:03.472Z,74.39
2022-12-29T04:24:30.108Z,74.97
2022-12-29T04:26:56.791Z,74.23
2022-12-29T04:29:23.560Z,75.15
2022-12-29T04:31:50.420Z,75.97
2022-12-29T04:34:17.015Z,76.20
2022-12-29T04:36:45.401Z,74.70
2022-12-29T04:39:12.129Z,75.20
2022-12-29T04:41:38.920Z,75.80
2022-12-29T04:44:05.455Z,75.78
2022-12-29T04:46:32.308Z,74.74
2022-12-29T04:48:58.870Z,73.12
2022-12-29T04:51:25.702Z,72.70
2022-12-29T04:53:52.029Z,71.94
2022-12-29T04:56:18.551Z,73.81
2022-12-29T04:58:45.095Z,74.10
2022-12-29T05:01:11.770Z,74.49
2022-12-29T05:03:39.158Z,75.63
2022-12-29T05:06:05.932Z,75.86
2022-12-29T05:08:32.561Z,74.86
2022-12-29T05:11:00.581Z,75.09
2022-12-29T05:13:27.481Z,75.21
2022-12-29T05:18:22.209Z,77.05
2022-12-29T05:20:48.775Z,78.02
2022-12-29T05:23:15.888Z,78.17
2022-12-29T05:25:46.079Z,79.03
2022-12-29T05:28:13.464Z,81.15
2022-12-29T05:30:41.699Z,81.20
2022-12-29T05:33:08.231Z,81.16
2022-12-29T05:35:34.683Z,81.36
2022-12-29T05:38:01.824Z,82.64
2022-12-29T05:40:28.590Z,81.85
2022-12-29T05:42:55.429Z,81.84
2022-12-29T05:45:21.869Z,81.57
2022-12-29T05:47:48.645Z,81.03
2022-12-29T05:50:15.522Z,80.37
2022-12-29T05:52:42.972Z,80.97
2022-12-29T05:55:10.447Z,81.54
2022-12-29T05:57:36.965Z,79.49
2022-12-29T06:00:07.903Z,78.32
2022-12-29T06:02:34.741Z,78.93
2022-12-29T06:05:01.581Z,81.16
2022-12-29T06:07:28.718Z,81.09
2022-12-29T06:09:55.143Z,82.38
2022-12-29T06:12:21.674Z,83.58
2022-12-29T06:14:48.215Z,83.75
2022-12-29T06:17:14.780Z,84.84
2022-12-29T06:19:41.497Z,85.20
2022-12-29T06:22:08.462Z,85.77
2022-12-29T06:24:35.055Z,86.52
2022-12-29T06:27:01.796Z,86.67
2022-12-29T06:29:28.855Z,87.72
2022-12-29T06:31:58.843Z,88.84
2022-12-29T06:34:26.206Z,89.74
2022-12-29T06:36:52.734Z,89.68
2022-12-29T06:39:19.227Z,89.93
2022-12-29T06:41:46.095Z,89.41
2022-12-29T06:44:14.665Z,89.60
2022-12-29T06:46:41.625Z,89.96
2022-12-29T06:49:08.073Z,89.39
2022-12-29T06:51:34.568Z,89.70
2022-12-29T06:54:01.094Z,88.71
2022-12-29T06:56:27.730Z,89.29
2022-12-29T06:58:54.489Z,88.27
2022-12-29T07:01:21.201Z,87.75
2022-12-29T07:03:48.200Z,88.89
2022-12-29T07:06:14.992Z,89.55
2022-12-29T07:08:41.784Z,88.72
2022-12-29T07:11:09.444Z,88.62
2022-12-29T07:13:36.390Z,87.70
2022-12-29T07:16:10.093Z,88.62
2022-12-29T07:18:36.892Z,88.52
2022-12-29T07:21:03.903Z,86.95
2022-12-29T07:23:30.780Z,88.12
2022-12-29T07:26:04.963Z,88.55
2022-12-29T07:28:33.092Z,88.07
2022-12-29T07:31:00.135Z,88.11
2022-12-29T07:33:29.803Z,85.96
2022-12-29T07:35:56.430Z,86.03
2022-12-29T07:38:23.933Z,82.84
2022-12-29T07:40:50.576Z,84.72
2022-12-29T07:43:17.211Z,83.22
2022-12-29T07:45:43.738Z,84.00
2022-12-29T07:48:10.567Z,82.42
2022-12-29T07:50:37.579Z,83.54
2022-12-29T07:53:04.350Z,84.88
2022-12-29T07:55:31.169Z,80.17
2022-12-29T07:57:57.897Z,84.21
2022-12-29T08:00:24.435Z,86.14
2022-12-29T08:02:51.606Z,81.05
2022-12-29T08:05:18.343Z,80.09
2022-12-29T08:07:46.074Z,79.63
2022-12-29T08:10:13.451Z,81.44
2022-12-29T08:12:41.934Z,84.07
2022-12-29T08:15:10.014Z,84.34
2022-12-29T08:17:37.873Z,81.40
2022-12-29T08:20:05.670Z,78.84
2022-12-29T08:22:33.360Z,79.25
2022-12-29T08:24:59.768Z,79.41
2022-12-29T08:27:26.704Z,80.95
2022-12-29T08:29:53.518Z,82.49
2022-12-29T08:32:20.003Z,80.29
2022-12-29T08:34:46.837Z,81.75
2022-12-29T08:37:13.441Z,79.87
2022-12-29T08:39:39.863Z,78.37
2022-12-29T08:42:07.253Z,78.50
2022-12-29T08:44:34.009Z,81.46
2022-12-29T08:47:00.857Z,82.12
2022-12-29T08:49:27.732Z,77.80
2022-12-29T08:51:54.317Z,75.75
2022-12-29T08:54:20.765Z,77.34
2022-12-29T08:56:47.270Z,79.33
2022-12-29T08:59:13.965Z,77.26
2022-12-29T09:01:41.513Z,78.62
2022-12-29T09:04:15.610Z,74.24
2022-12-29T09:06:44.360Z,79.95
2022-12-29T09:09:11.296Z,78.50
2022-12-29T09:11:38.167Z,77.22
2022-12-29T09:14:05.076Z,73.30
2022-12-29T09:16:32.357Z,75.51
2022-12-29T09:18:59.037Z,75.36
2022-12-29T09:21:25.730Z,74.90
2022-12-29T09:23:52.194Z,72.74
2022-12-29T09:26:18.657Z,71.91
2022-12-29T09:28:48.005Z,75.22
2022-12-29T09:31:15.397Z,75.72
2022-12-29T09:33:42.231Z,75.61
2022-12-29T09:36:10.469Z,74.59
2022-12-29T09:38:37.199Z,74.97
2022-12-29T09:41:20.344Z,74.00
2022-12-29T09:44:18.041Z,73.61
2022-12-29T09:46:50.489Z,74.77
2022-12-29T09:49:29.514Z,73.53
2022-12-29T09:52:00.737Z,73.07
2022-12-29T09:54:30.543Z,72.76
2022-12-29T09:56:57.209Z,70.96
2022-12-29T09:59:42.373Z,71.73
2022-12-29T10:02:14.881Z,71.08
2022-12-29T10:04:42.891Z,69.24
2022-12-29T10:07:56.264Z,68.82
2022-12-29T10:14:43.485Z,70.70
2022-12-29T10:17:39.339Z,70.82
2022-12-29T10:20:16.596Z,69.66
2022-12-29T10:23:08.423Z,71.24
2022-12-29T10:25:39.291Z,69.43
2022-12-29T10:28:18.598Z,69.38
2022-12-29T10:30:48.298Z,69.47
2022-12-29T10:33:24.940Z,68.41
2022-12-29T10:35:52.084Z,65.49
2022-12-29T10:38:38.851Z,67.71
2022-12-29T10:41:28.398Z,68.60
2022-12-29T10:43:57.838Z,69.01
2022-12-29T10:46:29.357Z,69.66
2022-12-29T10:48:55.969Z,68.86
2022-12-29T10:51:26.471Z,67.76
2022-12-29T10:54:10.767Z,67.63
2022-12-29T10:56:45.747Z,67.88
2022-12-29T10:59:33.757Z,69.47
2022-12-29T11:02:12.750Z,64.46
2022-12-29T11:04:57.233Z,65.43
2022-12-29T11:07:27.263Z,63.56
2022-12-29T11:09:54.904Z,65.87
2022-12-29T11:12:31.163Z,65.52
2022-12-29T11:15:06.915Z,66.45
2022-12-29T11:17:44.501Z,64.91
2022-12-29T11:20:33.627Z,64.99
2022-12-29T11:23:01.700Z,63.79
2022-12-29T11:25:28.865Z,60.59
2022-12-29T11:28:00.417Z,65.02
2022-12-29T11:30:32.240Z,64.15
2022-12-29T11:32:59.526Z,65.15
2022-12-29T11:35:41.951Z,63.47
2022-12-29T11:38:34.237Z,64.04
2022-12-29T11:41:01.020Z,64.29
2022-12-29T11:43:40.466Z,63.89
2022-12-29T11:46:07.980Z,63.09
2022-12-29T11:48:40.727Z,61.49
2022-12-29T11:51:08.586Z,62.21
2022-12-29T11:53:51.197Z,61.66
2022-12-29T11:56:23.425Z,63.22
2022-12-29T11:58:50.904Z,63.43
2022-12-29T12:01:28.000Z,62.88
2022-12-29T12:03:57.575Z,62.79
2022-12-29T12:06:25.348Z,62.73
2022-12-29T12:09:01.782Z,63.48
2022-12-29T12:11:37.238Z,63.19
2022-12-29T12:14:33.766Z,63.15
2022-12-29T12:17:05.486Z,62.98
2022-12-29T12:19:41.390Z,62.69
2022-12-29T12:22:22.723Z,63.43
2022-12-29T12:24:55.239Z,62.76
2022-12-29T12:27:40.990Z,61.73
2022-12-29T12:30:20.731Z,64.41
2022-12-29T12:33:14.873Z,62.64
2022-12-29T12:36:07.039Z,62.48
2022-12-29T12:39:06.301Z,63.67
2022-12-29T12:42:03.130Z,62.20
2022-12-29T12:45:11.764Z,61.92
2022-12-29T12:47:38.812Z,61.88
2022-12-29T12:50:46.370Z,61.94
2022-12-29T12:53:20.133Z,62.03
2022-12-29T12:55:49.586Z,61.61
2022-12-29T12:58:26.500Z,61.53
2022-12-29T13:01:14.824Z,61.09
2022-12-29T13:03:50.768Z,62.48
2022-12-29T13:06:34.642Z,61.14
2022-12-29T13:09:13.420Z,63.39
2022-12-29T13:11:46.426Z,61.01
2022-12-29T13:14:31.191Z,60.33
2022-12-29T13:17:00.302Z,60.55
2022-12-29T13:19:41.922Z,60.89
2022-12-29T13:22:11.917Z,61.95
2022-12-29T13:25:09.079Z,62.56
2022-12-29T13:27:55.787Z,62.65
2022-12-29T13:30:40.104Z,62.88
2022-12-29T13:33:19.351Z,61.85
2022-12-29T13:36:02.147Z,62.53
2022-12-29T13:38:40.820Z,62.20
2022-12-29T13:41:36.590Z,62.90
2022-12-29T13:44:06.287Z,62.39
2022-12-29T13:46:40.121Z,63.65
2022-12-29T13:49:23.419Z,63.12
2022-12-29T13:52:00.131Z,63.53
2022-12-29T13:54:47.878Z,63.08
2022-12-29T13:57:55.087Z,62.82
2022-12-29T14:00:23.719Z,62.28
2022-12-29T14:02:58.408Z,63.71
2022-12-29T14:05:29.979Z,62.92
2022-12-29T14:08:02.970Z,62.63
2022-12-29T14:10:48.139Z,62.69
2022-12-29T14:13:22.927Z,62.35
2022-12-29T14:16:00.712Z,60.45
2022-12-29T14:18:30.398Z,61.59
2022-12-29T14:21:00.583Z,61.09
2022-12-29T14:23:43.791Z,60.81
2022-12-29T14:26:11.969Z,61.27
2022-12-29T14:28:47.737Z,61.15
2022-12-29T14:31:20.033Z,58.50
2022-12-29T14:34:11.845Z,60.36
2022-12-29T14:36:43.808Z,60.48
2022-12-29T14:39:35.067Z,59.50
2022-12-29T14:42:07.546Z,61.71
2022-12-29T14:44:34.506Z,61.64
2022-12-29T14:47:07.783Z,61.79
2022-12-29T14:49:42.968Z,62.34
2022-12-29T14:52:18.504Z,62.08
2022-12-29T14:54:50.542Z,62.30
2022-12-29T14:57:23.575Z,62.44
2022-12-29T14:59:54.098Z,62.06
2022-12-29T15:02:24.843Z,63.43
2022-12-29T15:04:54.462Z,62.86
2022-12-29T15:07:21.644Z,63.11
2022-12-29T15:09:55.495Z,62.85
2022-12-29T15:12:39.346Z,61.73
2022-12-29T15:15:25.464Z,63.71
2022-12-29T15:17:52.489Z,64.67
2022-12-29T15:20:29.610Z,63.05
2022-12-29T15:23:03.069Z,64.22
2022-12-29T15:25:31.596Z,62.49
2022-12-29T15:28:03.390Z,64.53
2022-12-29T15:30:29.988Z,66.84
2022-12-29T15:32:56.786Z,65.63
2022-12-29T15:35:35.870Z,68.54
2022-12-29T15:38:16.720Z,68.70
2022-12-29T15:40:46.285Z,66.07
2022-12-29T15:43:24.982Z,64.46
2022-12-29T15:45:52.658Z,65.11
2022-12-29T15:48:23.642Z,65.82
2022-12-29T15:50:51.176Z,66.38
2022-12-29T15:53:30.756Z,67.24
2022-12-29T15:56:11.115Z,67.05
2022-12-29T15:58:48.552Z,66.65
2022-12-29T16:01:34.874Z,70.09
2022-12-29T16:04:05.434Z,71.32
2022-12-29T16:06:37.899Z,68.39
2022-12-29T16:09:19.606Z,66.00
2022-12-29T16:11:55.760Z,66.46
2022-12-29T16:14:30.791Z,67.10
2022-12-29T16:17:01.321Z,69.12
2022-12-29T16:19:33.497Z,71.16
2022-12-29T16:22:02.549Z,73.24
2022-12-29T16:24:32.909Z,72.70
2022-12-29T16:27:07.367Z,73.35
2022-12-29T16:29:35.189Z,72.66
2022-12-29T16:32:04.055Z,74.38
2022-12-29T16:34:33.997Z,74.62
2022-12-29T16:37:03.675Z,75.84
2022-12-29T16:39:40.824Z,74.89
2022-12-29T16:42:50.909Z,74.05
2022-12-29T16:45:21.571Z,74.42
2022-12-29T16:48:21.341Z,75.78
2022-12-29T16:50:49.645Z,76.52
2022-12-29T16:53:27.424Z,76.41
2022-12-29T16:55:55.592Z,76.60
2022-12-29T16:58:26.533Z,77.55
2022-12-29T17:00:56.808Z,77.60
2022-12-29T17:03:27.465Z,77.44
2022-12-29T17:05:57.467Z,77.16
2022-12-29T17:08:24.582Z,77.66
2022-12-29T17:11:13.914Z,77.49
2022-12-29T17:13:40.502Z,78.13
2022-12-29T17:16:09.605Z,75.67
2022-12-29T17:18:37.157Z,76.71
2022-12-29T17:21:03.900Z,77.48
2022-12-29T17:23:33.562Z,78.00
2022-12-29T17:26:00.249Z,74.23
2022-12-29T17:28:28.412Z,73.84
2022-12-29T17:30:59.502Z,74.47
2022-12-29T17:33:26.265Z,74.43
2022-12-29T17:35:55.682Z,75.49
2022-12-29T17:38:28.292Z,76.77
2022-12-29T17:40:55.382Z,76.25
2022-12-29T17:43:22.261Z,74.82
2022-12-29T17:45:57.616Z,75.58
2022-12-29T17:48:25.666Z,76.43
2022-12-29T17:50:54.066Z,75.21
2022-12-29T17:53:23.659Z,74.59
2022-12-29T17:55:50.233Z,74.60
2022-12-29T17:58:23.260Z,74.07
2022-12-29T18:00:52.410Z,75.36
2022-12-29T18:03:30.272Z,76.46
2022-12-29T18:05:57.359Z,76.82
2022-12-29T18:08:24.841Z,76.01
2022-12-29T18:10:53.807Z,74.53
2022-12-29T18:13:39.334Z,74.00
2022-12-29T18:16:12.173Z,75.48
2022-12-29T18:18:38.650Z,75.38
2022-12-29T18:21:06.236Z,76.22
2022-12-29T18:23:36.397Z,76.50
2022-12-29T18:26:25.692Z,75.74
2022-12-29T18:28:55.043Z,75.54
2022-12-29T18:31:24.608Z,77.02
2022-12-29T18:33:52.731Z,76.37
2022-12-29T18:36:19.386Z,74.92
2022-12-29T18:38:46.532Z,75.50
2022-12-29T18:41:17.410Z,75.88
2022-12-29T18:43:45.063Z,75.57
2022-12-29T18:46:17.238Z,74.86
2022-12-29T18:48:47.041Z,74.08
2022-12-29T18:51:18.962Z,74.43
2022-12-29T18:53:46.331Z,75.37
2022-12-29T18:56:13.661Z,73.63
2022-12-29T18:58:40.677Z,75.38
2022-12-29T19:01:07.745Z,73.88
2022-12-29T19:03:34.358Z,73.03
2022-12-29T19:06:01.555Z,74.75
2022-12-29T19:08:28.171Z,76.17
2022-12-29T19:10:54.738Z,75.43
2022-12-29T19:13:29.309Z,75.47
2022-12-29T19:15:57.346Z,76.31
2022-12-29T19:18:44.567Z,73.54
2022-12-29T19:21:12.232Z,74.43
2022-12-29T19:23:38.999Z,75.59
2022-12-29T19:26:05.985Z,75.67
2022-12-29T19:28:32.461Z,75.06
2022-12-29T19:31:02.165Z,73.49
2022-12-29T19:33:29.396Z,72.49
2022-12-29T19:36:02.441Z,74.53
2022-12-29T19:38:29.407Z,75.86
2022-12-29T19:40:56.253Z,72.47
2022-12-29T19:43:22.802Z,72.53
2022-12-29T19:45:51.265Z,70.41
2022-12-29T19:48:19.960Z,69.56
2022-12-29T19:50:47.323Z,71.40
2022-12-29T19:53:14.535Z,71.33
2022-12-29T19:55:45.625Z,73.35
2022-12-29T19:58:13.240Z,75.03
2022-12-29T20:00:41.621Z,74.97
2022-12-29T20:03:09.098Z,75.01
2022-12-29T20:05:36.072Z,74.95
2022-12-29T20:08:03.009Z,75.43
2022-12-29T20:10:29.655Z,73.23
2022-12-29T20:12:56.258Z,71.15
2022-12-29T20:15:23.373Z,73.17
2022-12-29T20:20:37.260Z,73.41
2022-12-29T20:23:03.933Z,71.38
2022-12-29T20:25:47.172Z,70.49
2022-12-29T20:28:15.780Z,71.52
2022-12-29T20:30:43.049Z,72.11
2022-12-29T20:33:09.892Z,72.58
2022-12-29T20:35:36.864Z,73.62
2022-12-29T20:38:04.454Z,73.31
2022-12-29T20:40:31.455Z,73.72
2022-12-29T20:42:58.744Z,74.55
2022-12-29T20:45:25.404Z,75.15
2022-12-29T20:47:52.041Z,75.25
2022-12-29T20:50:18.876Z,75.96
2022-12-29T20:52:46.650Z,76.61
2022-12-29T20:55:13.287Z,77.46
2022-12-29T20:58:14.233Z,78.12
2022-12-29T21:00:30.317Z,78.04
2022-12-29T21:02:58.584Z,78.35
2022-12-29T21:05:26.085Z,79.36
2022-12-29T21:07:54.700Z,78.00
2022-12-29T21:10:22.295Z,78.91
2022-12-29T21:12:50.030Z,80.33
2022-12-29T21:15:17.554Z,80.16
2022-12-29T21:17:45.428Z,79.91
2022-12-29T21:20:19.720Z,80.55
2022-12-29T21:22:47.747Z,80.04
2022-12-29T21:25:14.317Z,79.82
2022-12-29T21:27:44.341Z,80.70
2022-12-29T21:30:11.922Z,81.06
2022-12-29T21:32:40.184Z,81.03
2022-12-29T21:35:08.748Z,80.44
2022-12-29T21:37:36.299Z,79.27
2022-12-29T21:40:04.151Z,80.19
2022-12-29T21:42:30.958Z,80.98
2022-12-29T21:45:20.420Z,80.99
2022-12-29T21:48:06.609Z,80.77
2022-12-29T21:50:33.491Z,79.31
2022-12-29T21:53:00.214Z,79.65
2022-12-29T21:55:26.640Z,79.85
2022-12-29T21:58:11.967Z,78.54
2022-12-29T22:00:57.004Z,79.42
2022-12-29T22:03:42.578Z,79.54
2022-12-29T22:06:31.328Z,80.16
2022-12-29T22:09:16.672Z,80.84
2022-12-29T22:12:01.940Z,80.60
2022-12-29T22:14:28.610Z,80.06
2022-12-29T22:16:55.357Z,79.75
2022-12-29T22:19:21.990Z,79.69
2022-12-29T22:21:48.464Z,78.95
2022-12-29T22:24:14.984Z,79.51
2022-12-29T22:26:41.522Z,79.75
2022-12-29T22:29:08.566Z,79.25
2022-12-29T22:31:35.189Z,79.85
2022-12-29T22:34:03.686Z,79.85
2022-12-29T22:36:31.229Z,79.47
2022-12-29T22:38:57.894Z,79.04
2022-12-29T22:41:24.732Z,80.11
2022-12-29T22:43:51.274Z,79.52
2022-12-29T22:46:17.836Z,79.19
2022-12-29T22:48:44.536Z,80.05
2022-12-29T22:51:11.206Z,79.43
2022-12-29T22:53:37.555Z,79.43
2022-12-29T22:56:10.122Z,80.47
2022-12-29T22:58:40.858Z,78.95
2022-12-29T23:01:08.996Z,80.24
2022-12-29T23:03:35.843Z,81.16
2022-12-29T23:06:04.506Z,81.63
2022-12-29T23:08:34.394Z,83.14
2022-12-29T23:11:01.792Z,81.18
2022-12-29T23:13:28.932Z,81.49
2022-12-29T23:15:55.451Z,80.84
2022-12-29T23:18:22.943Z,81.22
2022-12-29T23:20:49.945Z,80.98
2022-12-29T23:23:36.802Z,80.93
2022-12-29T23:26:03.433Z,82.56
2022-12-29T23:28:30.003Z,81.49
2022-12-29T23:30:56.548Z,82.05
2022-12-29T23:33:23.205Z,81.97
2022-12-29T23:35:49.893Z,82.64
2022-12-29T23:38:16.736Z,81.72
2022-12-29T23:40:43.185Z,81.35
2022-12-29T23:43:10.153Z,81.80
2022-12-29T23:45:37.552Z,80.82
2022-12-29T23:48:05.063Z,82.09
2022-12-29T23:50:32.116Z,81.92
2022-12-29T23:52:59.124Z,82.62
2022-12-29T23:55:25.804Z,82.79
2022-12-29T23:57:52.349Z,83.08
